sensor_id;sensor_type;location;lat;lon;timestamp;temperature;humidity
25468;DHT22;13384;24.794;110.498;2023-07-29T00:01:53;27.80;99.90
25468;DHT22;13384;24.794;110.498;2023-07-29T00:04:25;27.80;99.90
25468;DHT22;13384;24.794;110.498;2023-07-29T00:06:57;27.80;99.90
25468;DHT22;13384;24.794;110.498;2023-07-29T00:09:29;27.80;99.90
25468;DHT22;13384;24.794;110.498;2023-07-29T00:12:00;27.90;99.90
25468;DHT22;13384;24.794;110.498;2023-07-29T00:14:31;28.00;99.90
25468;DHT22;13384;24.794;110.498;2023-07-29T00:17:03;28.10;99.90
25468;DHT22;13384;24.794;110.498;2023-07-29T00:19:34;28.10;99.90
25468;DHT22;13384;24.794;110.498;2023-07-29T00:22:06;28.10;99.90
25468;DHT22;13384;24.794;110.498;2023-07-29T00:24:40;28.10;99.90
25468;DHT22;13384;24.794;110.498;2023-07-29T00:27:11;28.10;99.90
25468;DHT22;13384;24.794;110.498;2023-07-29T00:29:43;28.10;99.90
25468;DHT22;13384;24.794;110.498;2023-07-29T00:32:15;28.20;99.90
25468;DHT22;13384;24.794;110.498;2023-07-29T00:34:47;28.30;99.90
25468;DHT22;13384;24.794;110.498;2023-07-29T00:37:18;28.30;99.90
25468;DHT22;13384;24.794;110.498;2023-07-29T00:39:50;28.40;99.90
25468;DHT22;13384;24.794;110.498;2023-07-29T00:42:21;28.50;99.90
25468;DHT22;13384;24.794;110.498;2023-07-29T00:44:53;28.50;99.90
25468;DHT22;13384;24.794;110.498;2023-07-29T00:47:26;28.50;99.90
25468;DHT22;13384;24.794;110.498;2023-07-29T00:49:57;28.50;99.90
25468;DHT22;13384;24.794;110.498;2023-07-29T00:52:29;28.50;99.90
25468;DHT22;13384;24.794;110.498;2023-07-29T00:55:00;28.70;99.90
25468;DHT22;13384;24.794;110.498;2023-07-29T00:57:33;28.80;99.90
25468;DHT22;13384;24.794;110.498;2023-07-29T01:00:06;28.70;99.90
25468;DHT22;13384;24.794;110.498;2023-07-29T01:02:44;28.80;99.90
25468;DHT22;13384;24.794;110.498;2023-07-29T01:05:17;28.80;99.90
25468;DHT22;13384;24.794;110.498;2023-07-29T01:08:17;28.80;99.90
25468;DHT22;13384;24.794;110.498;2023-07-29T01:17:05;29.20;99.90
25468;DHT22;13384;24.794;110.498;2023-07-29T01:20:01;29.30;99.90
25468;DHT22;13384;24.794;110.498;2023-07-29T01:22:40;29.30;99.90
25468;DHT22;13384;24.794;110.498;2023-07-29T01:25:13;29.30;99.90
25468;DHT22;13384;24.794;110.498;2023-07-29T01:27:46;29.40;99.90
25468;DHT22;13384;24.794;110.498;2023-07-29T01:30:18;29.40;99.90
25468;DHT22;13384;24.794;110.498;2023-07-29T01:33:06;29.30;99.90
25468;DHT22;13384;24.794;110.498;2023-07-29T01:38:45;29.50;99.90
25468;DHT22;13384;24.794;110.498;2023-07-29T01:41:22;29.50;99.90
25468;DHT22;13384;24.794;110.498;2023-07-29T01:43:54;29.70;99.90
25468;DHT22;13384;24.794;110.498;2023-07-29T01:46:26;29.80;99.90
25468;DHT22;13384;24.794;110.498;2023-07-29T01:48:58;29.90;99.90
25468;DHT22;13384;24.794;110.498;2023-07-29T01:51:29;30.00;99.90
25468;DHT22;13384;24.794;110.498;2023-07-29T01:54:00;30.10;99.90
25468;DHT22;13384;24.794;110.498;2023-07-29T01:56:32;30.10;99.90
25468;DHT22;13384;24.794;110.498;2023-07-29T01:59:04;30.10;99.90
25468;DHT22;13384;24.794;110.498;2023-07-29T02:01:35;30.10;99.90
25468;DHT22;13384;24.794;110.498;2023-07-29T02:04:07;30.10;99.90
25468;DHT22;13384;24.794;110.498;2023-07-29T02:06:38;30.20;99.90
25468;DHT22;13384;24.794;110.498;2023-07-29T02:09:10;30.20;99.90
25468;DHT22;13384;24.794;110.498;2023-07-29T02:11:41;30.10;99.90
25468;DHT22;13384;24.794;110.498;2023-07-29T02:14:13;30.20;99.90
25468;DHT22;13384;24.794;110.498;2023-07-29T02:16:44;30.20;99.90
25468;DHT22;13384;24.794;110.498;2023-07-29T02:19:16;30.20;99.90
25468;DHT22;13384;24.794;110.498;2023-07-29T02:21:48;30.20;99.90
25468;DHT22;13384;24.794;110.498;2023-07-29T02:24:19;30.20;99.90
25468;DHT22;13384;24.794;110.498;2023-07-29T02:26:52;30.10;99.90
25468;DHT22;13384;24.794;110.498;2023-07-29T02:29:24;30.30;99.90
25468;DHT22;13384;24.794;110.498;2023-07-29T02:31:56;30.40;99.90
25468;DHT22;13384;24.794;110.498;2023-07-29T02:34:29;30.50;99.90
25468;DHT22;13384;24.794;110.498;2023-07-29T02:37:01;30.60;99.90
25468;DHT22;13384;24.794;110.498;2023-07-29T02:39:45;30.80;99.90
25468;DHT22;13384;24.794;110.498;2023-07-29T02:42:16;30.80;99.90
25468;DHT22;13384;24.794;110.498;2023-07-29T02:44:48;30.70;99.90
25468;DHT22;13384;24.794;110.498;2023-07-29T02:47:19;30.60;99.90
25468;DHT22;13384;24.794;110.498;2023-07-29T02:49:50;30.50;99.90
25468;DHT22;13384;24.794;110.498;2023-07-29T02:52:22;30.70;99.90
25468;DHT22;13384;24.794;110.498;2023-07-29T02:54:53;30.80;99.90
25468;DHT22;13384;24.794;110.498;2023-07-29T02:57:24;31.00;99.90
25468;DHT22;13384;24.794;110.498;2023-07-29T02:59:56;31.00;99.90
25468;DHT22;13384;24.794;110.498;2023-07-29T03:02:27;31.10;99.90
25468;DHT22;13384;24.794;110.498;2023-07-29T03:04:59;31.20;99.90
25468;DHT22;13384;24.794;110.498;2023-07-29T03:07:30;31.40;99.90
25468;DHT22;13384;24.794;110.498;2023-07-29T03:10:02;31.30;99.90
25468;DHT22;13384;24.794;110.498;2023-07-29T03:12:34;31.40;99.90
25468;DHT22;13384;24.794;110.498;2023-07-29T03:15:05;31.50;99.90
25468;DHT22;13384;24.794;110.498;2023-07-29T03:17:37;31.60;99.90
25468;DHT22;13384;24.794;110.498;2023-07-29T03:20:08;31.60;99.90
25468;DHT22;13384;24.794;110.498;2023-07-29T03:22:40;31.50;99.90
25468;DHT22;13384;24.794;110.498;2023-07-29T03:25:12;31.60;99.90
25468;DHT22;13384;24.794;110.498;2023-07-29T03:27:43;31.80;99.90
25468;DHT22;13384;24.794;110.498;2023-07-29T03:30:14;32.00;99.90
25468;DHT22;13384;24.794;110.498;2023-07-29T03:33:00;31.80;99.90
25468;DHT22;13384;24.794;110.498;2023-07-29T03:35:32;31.70;99.90
25468;DHT22;13384;24.794;110.498;2023-07-29T03:38:11;31.80;99.90
25468;DHT22;13384;24.794;110.498;2023-07-29T03:40:43;32.00;99.90
25468;DHT22;13384;24.794;110.498;2023-07-29T03:43:16;32.10;99.90
25468;DHT22;13384;24.794;110.498;2023-07-29T03:45:49;32.20;99.90
25468;DHT22;13384;24.794;110.498;2023-07-29T03:48:21;32.20;99.90
25468;DHT22;13384;24.794;110.498;2023-07-29T03:50:53;32.20;99.90
25468;DHT22;13384;24.794;110.498;2023-07-29T03:53:25;32.20;99.90
25468;DHT22;13384;24.794;110.498;2023-07-29T03:55:56;32.20;99.90
25468;DHT22;13384;24.794;110.498;2023-07-29T03:58:28;32.10;99.90
25468;DHT22;13384;24.794;110.498;2023-07-29T04:01:03;32.10;99.90
25468;DHT22;13384;24.794;110.498;2023-07-29T04:03:35;32.40;99.90
25468;DHT22;13384;24.794;110.498;2023-07-29T04:06:07;32.20;99.90
25468;DHT22;13384;24.794;110.498;2023-07-29T04:08:41;32.20;99.90
25468;DHT22;13384;24.794;110.498;2023-07-29T04:11:12;32.30;99.90
25468;DHT22;13384;24.794;110.498;2023-07-29T04:13:44;32.30;99.90
25468;DHT22;13384;24.794;110.498;2023-07-29T04:16:15;32.30;99.90
25468;DHT22;13384;24.794;110.498;2023-07-29T04:18:49;32.60;99.90
25468;DHT22;13384;24.794;110.498;2023-07-29T04:21:20;32.80;99.90
25468;DHT22;13384;24.794;110.498;2023-07-29T04:23:51;32.90;99.90
25468;DHT22;13384;24.794;110.498;2023-07-29T04:26:23;33.10;99.90
25468;DHT22;13384;24.794;110.498;2023-07-29T04:28:54;33.00;99.90
25468;DHT22;13384;24.794;110.498;2023-07-29T04:31:26;33.10;99.90
25468;DHT22;13384;24.794;110.498;2023-07-29T04:34:01;33.30;99.90
25468;DHT22;13384;24.794;110.498;2023-07-29T04:36:33;33.00;99.90
25468;DHT22;13384;24.794;110.498;2023-07-29T04:39:06;32.90;99.90
25468;DHT22;13384;24.794;110.498;2023-07-29T04:41:37;33.00;99.90
25468;DHT22;13384;24.794;110.498;2023-07-29T04:44:08;33.00;99.90
25468;DHT22;13384;24.794;110.498;2023-07-29T04:46:40;33.10;99.90
25468;DHT22;13384;24.794;110.498;2023-07-29T04:49:11;33.00;99.90
25468;DHT22;13384;24.794;110.498;2023-07-29T04:51:43;32.90;99.90
25468;DHT22;13384;24.794;110.498;2023-07-29T04:54:14;32.90;99.90
25468;DHT22;13384;24.794;110.498;2023-07-29T04:56:46;33.10;99.90
25468;DHT22;13384;24.794;110.498;2023-07-29T04:59:18;33.20;99.90
25468;DHT22;13384;24.794;110.498;2023-07-29T05:01:50;33.10;99.90
25468;DHT22;13384;24.794;110.498;2023-07-29T05:04:23;33.00;99.90
25468;DHT22;13384;24.794;110.498;2023-07-29T05:07:12;33.20;99.90
25468;DHT22;13384;24.794;110.498;2023-07-29T05:09:44;33.30;99.90
25468;DHT22;13384;24.794;110.498;2023-07-29T05:12:15;33.30;99.90
25468;DHT22;13384;24.794;110.498;2023-07-29T05:14:49;33.40;99.90
25468;DHT22;13384;24.794;110.498;2023-07-29T05:17:22;33.40;99.90
25468;DHT22;13384;24.794;110.498;2023-07-29T05:19:53;33.50;99.90
25468;DHT22;13384;24.794;110.498;2023-07-29T05:22:25;33.60;99.90
25468;DHT22;13384;24.794;110.498;2023-07-29T05:25:09;33.50;99.90
25468;DHT22;13384;24.794;110.498;2023-07-29T05:27:41;33.70;99.90
25468;DHT22;13384;24.794;110.498;2023-07-29T05:30:13;33.70;99.90
25468;DHT22;13384;24.794;110.498;2023-07-29T05:32:57;33.70;99.90
25468;DHT22;13384;24.794;110.498;2023-07-29T05:35:29;34.00;99.90
25468;DHT22;13384;24.794;110.498;2023-07-29T05:38:01;34.30;99.90
25468;DHT22;13384;24.794;110.498;2023-07-29T05:40:34;34.30;99.90
25468;DHT22;13384;24.794;110.498;2023-07-29T05:43:06;34.50;99.90
25468;DHT22;13384;24.794;110.498;2023-07-29T05:45:50;34.30;99.90
25468;DHT22;13384;24.794;110.498;2023-07-29T05:48:22;34.20;99.90
25468;DHT22;13384;24.794;110.498;2023-07-29T05:50:54;34.20;99.90
25468;DHT22;13384;24.794;110.498;2023-07-29T05:53:25;34.30;99.90
25468;DHT22;13384;24.794;110.498;2023-07-29T05:56:03;34.40;99.90
25468;DHT22;13384;24.794;110.498;2023-07-29T05:58:35;34.30;99.90
25468;DHT22;13384;24.794;110.498;2023-07-29T06:01:18;34.30;99.90
25468;DHT22;13384;24.794;110.498;2023-07-29T06:03:52;34.30;99.90
25468;DHT22;13384;24.794;110.498;2023-07-29T06:06:24;34.10;99.90
25468;DHT22;13384;24.794;110.498;2023-07-29T06:08:56;34.10;99.90
25468;DHT22;13384;24.794;110.498;2023-07-29T06:11:27;33.90;99.90
25468;DHT22;13384;24.794;110.498;2023-07-29T06:13:59;33.80;99.90
25468;DHT22;13384;24.794;110.498;2023-07-29T06:16:30;33.90;99.90
25468;DHT22;13384;24.794;110.498;2023-07-29T06:19:02;33.80;99.90
25468;DHT22;13384;24.794;110.498;2023-07-29T06:21:33;33.60;99.90
25468;DHT22;13384;24.794;110.498;2023-07-29T06:24:05;33.60;99.90
25468;DHT22;13384;24.794;110.498;2023-07-29T06:26:40;33.70;99.90
25468;DHT22;13384;24.794;110.498;2023-07-29T06:29:36;33.80;99.90
25468;DHT22;13384;24.794;110.498;2023-07-29T06:32:20;33.60;99.90
25468;DHT22;13384;24.794;110.498;2023-07-29T06:34:52;33.70;99.90
25468;DHT22;13384;24.794;110.498;2023-07-29T06:37:24;33.60;99.90
25468;DHT22;13384;24.794;110.498;2023-07-29T06:39:56;33.80;99.90
25468;DHT22;13384;24.794;110.498;2023-07-29T06:42:45;33.90;99.90
25468;DHT22;13384;24.794;110.498;2023-07-29T06:45:17;33.80;99.90
25468;DHT22;13384;24.794;110.498;2023-07-29T06:47:48;33.80;99.90
25468;DHT22;13384;24.794;110.498;2023-07-29T06:50:20;33.70;99.90
25468;DHT22;13384;24.794;110.498;2023-07-29T06:52:51;33.70;99.90
25468;DHT22;13384;24.794;110.498;2023-07-29T06:55:22;33.50;99.90
25468;DHT22;13384;24.794;110.498;2023-07-29T06:57:54;33.40;99.90
25468;DHT22;13384;24.794;110.498;2023-07-29T07:00:26;33.30;99.90
25468;DHT22;13384;24.794;110.498;2023-07-29T07:03:03;33.20;99.90
25468;DHT22;13384;24.794;110.498;2023-07-29T07:05:37;33.10;99.90
25468;DHT22;13384;24.794;110.498;2023-07-29T07:08:22;33.10;99.90
25468;DHT22;13384;24.794;110.498;2023-07-29T07:10:53;33.00;99.90
25468;DHT22;13384;24.794;110.498;2023-07-29T07:13:33;33.00;99.90
25468;DHT22;13384;24.794;110.498;2023-07-29T07:16:04;32.90;99.90
25468;DHT22;13384;24.794;110.498;2023-07-29T07:18:35;32.90;99.90
25468;DHT22;13384;24.794;110.498;2023-07-29T07:21:07;32.90;99.90
25468;DHT22;13384;24.794;110.498;2023-07-29T07:23:39;32.80;99.90
25468;DHT22;13384;24.794;110.498;2023-07-29T07:26:10;32.80;99.90
25468;DHT22;13384;24.794;110.498;2023-07-29T07:28:42;32.80;99.90
25468;DHT22;13384;24.794;110.498;2023-07-29T07:31:13;32.80;99.90
25468;DHT22;13384;24.794;110.498;2023-07-29T07:33:48;32.70;99.90
25468;DHT22;13384;24.794;110.498;2023-07-29T07:36:19;32.80;99.90
25468;DHT22;13384;24.794;110.498;2023-07-29T07:38:51;32.70;99.90
25468;DHT22;13384;24.794;110.498;2023-07-29T07:41:22;32.70;99.90
25468;DHT22;13384;24.794;110.498;2023-07-29T07:43:54;32.70;99.90
25468;DHT22;13384;24.794;110.498;2023-07-29T07:46:28;32.70;99.90
25468;DHT22;13384;24.794;110.498;2023-07-29T07:48:59;32.70;99.90
25468;DHT22;13384;24.794;110.498;2023-07-29T07:51:31;32.70;99.90
25468;DHT22;13384;24.794;110.498;2023-07-29T07:54:02;32.70;99.90
25468;DHT22;13384;24.794;110.498;2023-07-29T07:56:33;32.60;99.90
25468;DHT22;13384;24.794;110.498;2023-07-29T07:59:05;32.60;99.90
25468;DHT22;13384;24.794;110.498;2023-07-29T08:01:38;32.60;99.90
25468;DHT22;13384;24.794;110.498;2023-07-29T08:04:21;32.60;99.90
25468;DHT22;13384;24.794;110.498;2023-07-29T08:06:53;32.60;99.90
25468;DHT22;13384;24.794;110.498;2023-07-29T08:09:31;32.50;99.90
25468;DHT22;13384;24.794;110.498;2023-07-29T08:12:03;32.40;99.90
25468;DHT22;13384;24.794;110.498;2023-07-29T08:14:55;32.50;99.90
25468;DHT22;13384;24.794;110.498;2023-07-29T08:17:26;32.40;99.90
25468;DHT22;13384;24.794;110.498;2023-07-29T08:20:08;32.40;99.90
25468;DHT22;13384;24.794;110.498;2023-07-29T08:22:40;32.30;99.90
25468;DHT22;13384;24.794;110.498;2023-07-29T08:25:26;32.30;99.90
25468;DHT22;13384;24.794;110.498;2023-07-29T08:27:57;32.30;99.90
25468;DHT22;13384;24.794;110.498;2023-07-29T08:30:29;32.20;99.90
25468;DHT22;13384;24.794;110.498;2023-07-29T08:33:00;32.30;99.90
25468;DHT22;13384;24.794;110.498;2023-07-29T08:35:31;32.30;99.90
25468;DHT22;13384;24.794;110.498;2023-07-29T08:38:26;32.10;99.90
25468;DHT22;13384;24.794;110.498;2023-07-29T08:44:18;32.20;99.90
25468;DHT22;13384;24.794;110.498;2023-07-29T08:46:53;32.20;99.90
25468;DHT22;13384;24.794;110.498;2023-07-29T08:49:27;32.10;99.90
25468;DHT22;13384;24.794;110.498;2023-07-29T08:52:01;32.00;99.90
25468;DHT22;13384;24.794;110.498;2023-07-29T08:54:33;32.00;99.90
25468;DHT22;13384;24.794;110.498;2023-07-29T08:57:06;32.00;99.90
25468;DHT22;13384;24.794;110.498;2023-07-29T08:59:41;31.90;99.90
25468;DHT22;13384;24.794;110.498;2023-07-29T09:02:12;31.90;99.90
25468;DHT22;13384;24.794;110.498;2023-07-29T09:04:44;31.90;99.90
25468;DHT22;13384;24.794;110.498;2023-07-29T09:07:15;31.80;99.90
25468;DHT22;13384;24.794;110.498;2023-07-29T09:09:55;31.80;99.90
25468;DHT22;13384;24.794;110.498;2023-07-29T09:12:27;31.80;99.90
25468;DHT22;13384;24.794;110.498;2023-07-29T09:14:59;31.60;99.90
25468;DHT22;13384;24.794;110.498;2023-07-29T09:17:34;31.60;99.90
25468;DHT22;13384;24.794;110.498;2023-07-29T09:20:06;31.70;99.90
25468;DHT22;13384;24.794;110.498;2023-07-29T09:22:38;31.60;99.90
25468;DHT22;13384;24.794;110.498;2023-07-29T09:25:09;31.60;99.90
25468;DHT22;13384;24.794;110.498;2023-07-29T09:27:46;31.50;99.90
25468;DHT22;13384;24.794;110.498;2023-07-29T09:30:30;31.50;99.90
25468;DHT22;13384;24.794;110.498;2023-07-29T09:33:01;31.40;99.90
25468;DHT22;13384;24.794;110.498;2023-07-29T09:35:37;31.40;99.90
25468;DHT22;13384;24.794;110.498;2023-07-29T09:38:14;31.30;99.90
25468;DHT22;13384;24.794;110.498;2023-07-29T09:40:46;31.20;99.90
25468;DHT22;13384;24.794;110.498;2023-07-29T09:43:17;31.30;99.90
25468;DHT22;13384;24.794;110.498;2023-07-29T09:45:49;31.30;99.90
25468;DHT22;13384;24.794;110.498;2023-07-29T09:48:25;31.20;99.90
25468;DHT22;13384;24.794;110.498;2023-07-29T09:50:56;31.20;99.90
25468;DHT22;13384;24.794;110.498;2023-07-29T09:53:28;31.20;99.90
25468;DHT22;13384;24.794;110.498;2023-07-29T09:56:01;31.10;99.90
25468;DHT22;13384;24.794;110.498;2023-07-29T09:58:33;31.20;99.90
25468;DHT22;13384;24.794;110.498;2023-07-29T10:01:09;31.10;99.90
25468;DHT22;13384;24.794;110.498;2023-07-29T10:03:41;31.10;99.90
25468;DHT22;13384;24.794;110.498;2023-07-29T10:06:15;31.20;99.90
25468;DHT22;13384;24.794;110.498;2023-07-29T10:08:51;31.10;99.90
25468;DHT22;13384;24.794;110.498;2023-07-29T10:11:25;31.10;99.90
25468;DHT22;13384;24.794;110.498;2023-07-29T10:13:57;31.10;99.90
25468;DHT22;13384;24.794;110.498;2023-07-29T10:16:37;31.10;99.90
25468;DHT22;13384;24.794;110.498;2023-07-29T10:19:10;31.00;99.90
25468;DHT22;13384;24.794;110.498;2023-07-29T10:21:45;31.00;99.90
25468;DHT22;13384;24.794;110.498;2023-07-29T10:24:24;31.00;99.90
25468;DHT22;13384;24.794;110.498;2023-07-29T10:27:01;30.90;99.90
25468;DHT22;13384;24.794;110.498;2023-07-29T10:29:44;30.90;99.90
25468;DHT22;13384;24.794;110.498;2023-07-29T10:32:16;30.90;99.90
25468;DHT22;13384;24.794;110.498;2023-07-29T10:34:49;30.90;99.90
25468;DHT22;13384;24.794;110.498;2023-07-29T10:37:21;30.90;99.90
25468;DHT22;13384;24.794;110.498;2023-07-29T10:39:55;30.80;99.90
25468;DHT22;13384;24.794;110.498;2023-07-29T10:42:33;30.80;99.90
25468;DHT22;13384;24.794;110.498;2023-07-29T10:45:19;30.70;99.90
25468;DHT22;13384;24.794;110.498;2023-07-29T10:47:51;30.70;99.90
25468;DHT22;13384;24.794;110.498;2023-07-29T10:50:22;30.70;99.90
25468;DHT22;13384;24.794;110.498;2023-07-29T10:52:56;30.60;99.90
25468;DHT22;13384;24.794;110.498;2023-07-29T10:55:32;30.60;99.90
25468;DHT22;13384;24.794;110.498;2023-07-29T10:58:16;30.60;99.90
25468;DHT22;13384;24.794;110.498;2023-07-29T11:00:49;30.60;99.90
25468;DHT22;13384;24.794;110.498;2023-07-29T11:03:21;30.60;99.90
25468;DHT22;13384;24.794;110.498;2023-07-29T11:05:54;30.50;99.90
25468;DHT22;13384;24.794;110.498;2023-07-29T11:08:29;30.50;99.90
25468;DHT22;13384;24.794;110.498;2023-07-29T11:11:11;30.50;99.90
25468;DHT22;13384;24.794;110.498;2023-07-29T11:13:45;30.40;99.90
25468;DHT22;13384;24.794;110.498;2023-07-29T11:16:22;30.30;99.90
25468;DHT22;13384;24.794;110.498;2023-07-29T11:18:58;30.40;99.90
25468;DHT22;13384;24.794;110.498;2023-07-29T11:21:30;30.30;99.90
25468;DHT22;13384;24.794;110.498;2023-07-29T11:24:10;30.30;99.90
25468;DHT22;13384;24.794;110.498;2023-07-29T11:26:46;30.20;99.90
25468;DHT22;13384;24.794;110.498;2023-07-29T11:29:18;30.20;99.90
25468;DHT22;13384;24.794;110.498;2023-07-29T11:31:51;30.10;99.90
25468;DHT22;13384;24.794;110.498;2023-07-29T11:34:35;30.10;99.90
25468;DHT22;13384;24.794;110.498;2023-07-29T11:37:08;30.10;99.90
25468;DHT22;13384;24.794;110.498;2023-07-29T11:40:00;30.10;99.90
25468;DHT22;13384;24.794;110.498;2023-07-29T11:42:33;30.10;99.90
25468;DHT22;13384;24.794;110.498;2023-07-29T11:45:12;30.00;99.90
25468;DHT22;13384;24.794;110.498;2023-07-29T11:47:46;30.00;99.90
25468;DHT22;13384;24.794;110.498;2023-07-29T11:50:18;29.90;99.90
25468;DHT22;13384;24.794;110.498;2023-07-29T11:52:49;29.90;99.90
25468;DHT22;13384;24.794;110.498;2023-07-29T11:55:20;29.80;99.90
25468;DHT22;13384;24.794;110.498;2023-07-29T11:57:52;29.80;99.90
25468;DHT22;13384;24.794;110.498;2023-07-29T12:00:37;29.80;99.90
25468;DHT22;13384;24.794;110.498;2023-07-29T12:03:09;29.80;99.90
25468;DHT22;13384;24.794;110.498;2023-07-29T12:05:41;29.80;99.90
25468;DHT22;13384;24.794;110.498;2023-07-29T12:08:13;29.80;99.90
25468;DHT22;13384;24.794;110.498;2023-07-29T12:10:45;29.80;99.90
25468;DHT22;13384;24.794;110.498;2023-07-29T12:13:26;29.60;99.90
25468;DHT22;13384;24.794;110.498;2023-07-29T12:16:02;29.60;99.90
25468;DHT22;13384;24.794;110.498;2023-07-29T12:18:35;29.50;99.90
25468;DHT22;13384;24.794;110.498;2023-07-29T12:21:06;29.50;99.90
25468;DHT22;13384;24.794;110.498;2023-07-29T12:23:38;29.60;99.90
25468;DHT22;13384;24.794;110.498;2023-07-29T12:26:10;29.70;99.90
25468;DHT22;13384;24.794;110.498;2023-07-29T12:28:46;29.60;99.90
25468;DHT22;13384;24.794;110.498;2023-07-29T12:31:18;29.60;99.90
25468;DHT22;13384;24.794;110.498;2023-07-29T12:33:56;29.60;99.90
25468;DHT22;13384;24.794;110.498;2023-07-29T12:36:45;29.60;99.90
25468;DHT22;13384;24.794;110.498;2023-07-29T12:39:23;29.50;99.90
25468;DHT22;13384;24.794;110.498;2023-07-29T12:41:57;29.40;99.90
25468;DHT22;13384;24.794;110.498;2023-07-29T12:44:41;29.40;99.90
25468;DHT22;13384;24.794;110.498;2023-07-29T12:47:12;29.40;99.90
25468;DHT22;13384;24.794;110.498;2023-07-29T12:49:44;29.40;99.90
25468;DHT22;13384;24.794;110.498;2023-07-29T12:52:15;29.40;99.90
25468;DHT22;13384;24.794;110.498;2023-07-29T12:54:46;29.50;99.90
25468;DHT22;13384;24.794;110.498;2023-07-29T12:57:32;29.50;99.90
25468;DHT22;13384;24.794;110.498;2023-07-29T13:00:04;29.50;99.90
25468;DHT22;13384;24.794;110.498;2023-07-29T13:02:49;29.40;99.90
25468;DHT22;13384;24.794;110.498;2023-07-29T13:05:21;29.30;99.90
25468;DHT22;13384;24.794;110.498;2023-07-29T13:07:52;29.20;99.90
25468;DHT22;13384;24.794;110.498;2023-07-29T13:10:23;29.10;99.90
25468;DHT22;13384;24.794;110.498;2023-07-29T13:12:57;29.20;99.90
25468;DHT22;13384;24.794;110.498;2023-07-29T13:15:29;29.20;99.90
25468;DHT22;13384;24.794;110.498;2023-07-29T13:18:01;29.20;99.90
25468;DHT22;13384;24.794;110.498;2023-07-29T13:20:32;29.20;99.90
25468;DHT22;13384;24.794;110.498;2023-07-29T13:23:05;29.10;99.90
25468;DHT22;13384;24.794;110.498;2023-07-29T13:25:36;29.20;99.90
25468;DHT22;13384;24.794;110.498;2023-07-29T13:28:10;29.10;99.90
25468;DHT22;13384;24.794;110.498;2023-07-29T13:30:43;29.10;99.90
25468;DHT22;13384;24.794;110.498;2023-07-29T13:33:15;29.10;99.90
25468;DHT22;13384;24.794;110.498;2023-07-29T13:35:47;29.10;99.90
25468;DHT22;13384;24.794;110.498;2023-07-29T13:38:18;29.10;99.90
25468;DHT22;13384;24.794;110.498;2023-07-29T13:40:50;29.00;99.90
25468;DHT22;13384;24.794;110.498;2023-07-29T13:43:21;28.90;99.90
25468;DHT22;13384;24.794;110.498;2023-07-29T13:45:53;28.90;99.90
25468;DHT22;13384;24.794;110.498;2023-07-29T13:48:24;28.90;99.90
25468;DHT22;13384;24.794;110.498;2023-07-29T13:50:55;29.00;99.90
25468;DHT22;13384;24.794;110.498;2023-07-29T13:53:28;28.90;99.90
25468;DHT22;13384;24.794;110.498;2023-07-29T13:55:59;28.90;99.90
25468;DHT22;13384;24.794;110.498;2023-07-29T13:58:44;28.90;99.90
25468;DHT22;13384;24.794;110.498;2023-07-29T14:01:15;28.90;99.90
25468;DHT22;13384;24.794;110.498;2023-07-29T14:04:09;28.90;99.90
25468;DHT22;13384;24.794;110.498;2023-07-29T14:06:40;28.90;99.90
25468;DHT22;13384;24.794;110.498;2023-07-29T14:09:15;29.00;99.90
25468;DHT22;13384;24.794;110.498;2023-07-29T14:11:46;29.00;99.90
25468;DHT22;13384;24.794;110.498;2023-07-29T14:14:17;28.90;99.90
25468;DHT22;13384;24.794;110.498;2023-07-29T14:16:50;28.90;99.90
25468;DHT22;13384;24.794;110.498;2023-07-29T14:19:21;28.80;99.90
25468;DHT22;13384;24.794;110.498;2023-07-29T14:21:53;28.80;99.90
25468;DHT22;13384;24.794;110.498;2023-07-29T14:24:38;28.80;99.90
25468;DHT22;13384;24.794;110.498;2023-07-29T14:27:09;28.90;99.90
25468;DHT22;13384;24.794;110.498;2023-07-29T14:29:41;28.90;99.90
25468;DHT22;13384;24.794;110.498;2023-07-29T14:32:14;28.90;99.90
25468;DHT22;13384;24.794;110.498;2023-07-29T14:34:45;28.90;99.90
25468;DHT22;13384;24.794;110.498;2023-07-29T14:37:16;28.80;99.90
25468;DHT22;13384;24.794;110.498;2023-07-29T14:39:48;28.70;99.90
25468;DHT22;13384;24.794;110.498;2023-07-29T14:42:19;28.80;99.90
25468;DHT22;13384;24.794;110.498;2023-07-29T14:44:51;28.80;99.90
25468;DHT22;13384;24.794;110.498;2023-07-29T14:47:22;28.80;99.90
25468;DHT22;13384;24.794;110.498;2023-07-29T14:49:55;28.80;99.90
25468;DHT22;13384;24.794;110.498;2023-07-29T14:52:29;28.80;99.90
25468;DHT22;13384;24.794;110.498;2023-07-29T14:55:00;28.80;99.90
25468;DHT22;13384;24.794;110.498;2023-07-29T14:57:32;28.70;99.90
25468;DHT22;13384;24.794;110.498;2023-07-29T15:00:14;28.70;99.90
25468;DHT22;13384;24.794;110.498;2023-07-29T15:02:46;28.70;99.90
25468;DHT22;13384;24.794;110.498;2023-07-29T15:05:17;28.70;99.90
25468;DHT22;13384;24.794;110.498;2023-07-29T15:07:56;28.70;99.90
25468;DHT22;13384;24.794;110.498;2023-07-29T15:10:27;28.60;99.90
25468;DHT22;13384;24.794;110.498;2023-07-29T15:13:09;28.60;99.90
25468;DHT22;13384;24.794;110.498;2023-07-29T15:15:44;28.60;99.90
25468;DHT22;13384;24.794;110.498;2023-07-29T15:18:16;28.50;99.90
25468;DHT22;13384;24.794;110.498;2023-07-29T15:20:55;28.60;99.90
25468;DHT22;13384;24.794;110.498;2023-07-29T15:23:30;28.50;99.90
25468;DHT22;13384;24.794;110.498;2023-07-29T15:26:02;28.50;99.90
25468;DHT22;13384;24.794;110.498;2023-07-29T15:28:33;28.40;99.90
25468;DHT22;13384;24.794;110.498;2023-07-29T15:31:05;28.40;99.90
25468;DHT22;13384;24.794;110.498;2023-07-29T15:33:37;28.30;99.90
25468;DHT22;13384;24.794;110.498;2023-07-29T15:36:22;28.50;99.90
25468;DHT22;13384;24.794;110.498;2023-07-29T15:38:56;28.50;99.90
25468;DHT22;13384;24.794;110.498;2023-07-29T15:41:33;28.60;99.90
25468;DHT22;13384;24.794;110.498;2023-07-29T15:44:05;28.40;99.90
25468;DHT22;13384;24.794;110.498;2023-07-29T15:46:37;28.50;99.90
25468;DHT22;13384;24.794;110.498;2023-07-29T15:49:14;28.50;99.90
25468;DHT22;13384;24.794;110.498;2023-07-29T15:51:45;28.50;99.90
25468;DHT22;13384;24.794;110.498;2023-07-29T15:54:17;28.40;99.90
25468;DHT22;13384;24.794;110.498;2023-07-29T15:56:49;28.50;99.90